Terminal Aerodrome Forecast
Issued by NWS Sioux Falls, SD

Home | Current Version | Previous Version | Text Only | Print | Product List | Glossary On
Versions: 1 2 3 4 5 6 7 8 9 10 11 12 13 14 15 16 17 18 19 20
000
FTUS43 KFSD 211721
TAFSUX
TAF
KSUX 211721Z 2118/2218 27007KT P6SM SCT020 BKN110
     FM211900 27007KT P6SM SCT070
     FM220900 32007KT 5SM BR OVC015
     FM221300 32011KT 5SM BR OVC008
     FM221600 32012KT P6SM OVC010=

USA.gov is the U.S. government's official web portal to all federal, state and local government web resources and services.